createdAt,value
2023-03-21T00:00:59.358Z,20.90
2023-03-21T00:04:58.518Z,26.70
2023-03-21T00:08:57.156Z,22.60
2023-03-21T00:12:52.169Z,28.60
2023-03-21T00:16:48.725Z,23.90
2023-03-21T00:20:51.271Z,23.50
2023-03-21T00:24:48.845Z,27.00
2023-03-21T00:28:45.455Z,31.60
2023-03-21T00:32:49.294Z,28.10
2023-03-21T00:36:50.384Z,31.10
2023-03-21T00:40:32.968Z,33.60
2023-03-21T00:44:38.763Z,34.80
2023-03-21T00:48:28.668Z,23.20
2023-03-21T00:52:40.610Z,26.90
2023-03-21T00:56:44.826Z,38.90
2023-03-21T01:00:41.291Z,18.40
2023-03-21T01:04:31.926Z,14.30
2023-03-21T01:08:31.261Z,18.40
2023-03-21T01:12:23.922Z,18.80
2023-03-21T01:16:09.250Z,15.80
2023-03-21T01:20:04.693Z,10.30
2023-03-21T01:23:52.629Z,8.50
2023-03-21T01:27:40.973Z,7.30
2023-03-21T01:31:47.839Z,7.20
2023-03-21T01:35:48.029Z,10.10
2023-03-21T01:39:40.430Z,5.60
2023-03-21T01:43:42.953Z,7.40
2023-03-21T01:47:46.615Z,6.70
2023-03-21T01:51:42.617Z,7.10
2023-03-21T01:55:39.635Z,5.90
2023-03-21T01:59:43.458Z,5.80
2023-03-21T02:03:47.266Z,6.30
2023-03-21T02:07:48.358Z,7.90
2023-03-21T02:11:38.113Z,8.20
2023-03-21T02:15:34.608Z,8.20
2023-03-21T02:19:32.814Z,8.50
2023-03-21T02:23:42.311Z,7.00
2023-03-21T02:28:05.882Z,7.40
2023-03-21T02:32:34.880Z,9.70
2023-03-21T02:37:18.263Z,7.20
2023-03-21T02:41:40.068Z,7.60
2023-03-21T02:46:24.276Z,8.00
2023-03-21T02:50:22.423Z,9.30
2023-03-21T02:54:35.100Z,7.30
2023-03-21T02:58:42.816Z,8.10
2023-03-21T03:02:47.562Z,8.10
2023-03-21T03:06:53.237Z,7.00
2023-03-21T03:11:10.994Z,6.70
2023-03-21T03:15:16.214Z,7.10
2023-03-21T03:19:34.481Z,6.40
2023-03-21T03:23:45.963Z,7.00
2023-03-21T03:27:41.841Z,6.00
2023-03-21T03:31:45.470Z,5.00
2023-03-21T03:35:26.268Z,8.50
2023-03-21T03:39:15.940Z,5.80
2023-03-21T03:43:14.905Z,6.90
2023-03-21T03:47:04.261Z,7.70
2023-03-21T03:51:03.618Z,4.30
2023-03-21T03:55:07.332Z,5.30
2023-03-21T03:58:58.180Z,6.20
2023-03-21T04:02:46.009Z,5.40
2023-03-21T04:06:29.323Z,6.10
2023-03-21T04:10:29.402Z,6.00
2023-03-21T04:14:44.093Z,7.60
2023-03-21T04:18:39.547Z,6.60
2023-03-21T04:22:34.686Z,6.10
2023-03-21T04:26:38.530Z,5.30
2023-03-21T04:30:09.962Z,5.40
2023-03-21T04:34:00.122Z,6.20
2023-03-21T04:37:49.056Z,6.40
2023-03-21T04:41:44.291Z,6.30
2023-03-21T04:45:48.084Z,5.60
2023-03-21T04:49:45.168Z,5.20
2023-03-21T04:53:39.969Z,5.80
2023-03-21T04:57:39.869Z,5.50
2023-03-21T05:01:34.079Z,6.90
2023-03-21T05:05:11.967Z,6.00
2023-03-21T05:09:04.218Z,6.30
2023-03-21T05:13:00.457Z,6.90
2023-03-21T05:17:03.385Z,5.10
2023-03-21T05:20:53.230Z,5.50
2023-03-21T05:24:42.883Z,5.60
2023-03-21T05:28:27.341Z,6.90
2023-03-21T05:32:31.387Z,8.20
2023-03-21T05:36:55.115Z,6.60
2023-03-21T05:40:43.460Z,6.90
2023-03-21T05:44:37.300Z,6.90
2023-03-21T05:48:34.601Z,5.80
2023-03-21T05:52:38.174Z,5.50
2023-03-21T05:57:02.073Z,9.50
2023-03-21T06:01:06.336Z,9.00
2023-03-21T06:05:26.033Z,10.40
2023-03-21T06:09:38.259Z,9.50
2023-03-21T06:13:32.814Z,8.10
2023-03-21T06:17:36.477Z,6.40
2023-03-21T06:21:30.182Z,8.20
2023-03-21T06:25:04.312Z,6.90
2023-03-21T06:28:23.892Z,8.00
2023-03-21T06:32:05.841Z,9.80
2023-03-21T06:35:35.742Z,11.30
2023-03-21T06:39:00.321Z,10.90
2023-03-21T06:42:32.691Z,11.60
2023-03-21T06:46:06.265Z,12.40
2023-03-21T06:49:46.588Z,10.70
2023-03-21T06:53:20.694Z,10.30
2023-03-21T06:56:32.545Z,8.20
2023-03-21T06:59:41.160Z,9.70
2023-03-21T07:02:48.771Z,10.50
2023-03-21T07:05:53.751Z,10.90
2023-03-21T07:08:59.809Z,11.90
2023-03-21T07:12:10.183Z,11.70
2023-03-21T07:15:13.115Z,13.30
2023-03-21T07:18:23.730Z,18.20
2023-03-21T07:21:26.657Z,13.20
2023-03-21T07:24:29.562Z,18.90
2023-03-21T07:27:51.099Z,16.30
2023-03-21T07:31:05.451Z,19.00
2023-03-21T07:34:17.845Z,17.10
2023-03-21T07:37:23.991Z,21.90
2023-03-21T07:40:50.667Z,18.10
2023-03-21T07:43:59.352Z,22.70
2023-03-21T07:47:07.010Z,22.20
2023-03-21T07:51:05.811Z,25.10
2023-03-21T07:55:03.116Z,22.70
2023-03-21T07:58:46.178Z,21.30
2023-03-21T08:02:45.545Z,27.30
2023-03-21T08:06:16.881Z,21.90
2023-03-21T08:09:48.217Z,15.80
2023-03-21T08:13:37.962Z,17.10
2023-03-21T08:17:10.791Z,18.20
2023-03-21T08:21:14.785Z,24.20
2023-03-21T08:24:59.575Z,26.20
2023-03-21T08:29:03.331Z,27.30
2023-03-21T08:33:00.504Z,26.50
2023-03-21T08:36:51.054Z,28.60
2023-03-21T08:40:02.581Z,28.50
2023-03-21T08:44:06.250Z,32.00
2023-03-21T08:48:10.238Z,29.90
2023-03-21T08:52:11.749Z,31.60
2023-03-21T08:56:10.339Z,32.30
2023-03-21T09:00:14.110Z,28.10
2023-03-21T09:04:04.423Z,29.30
2023-03-21T09:08:07.685Z,34.90
2023-03-21T09:11:53.879Z,27.40
2023-03-21T09:15:37.168Z,38.00
2023-03-21T09:19:38.738Z,31.70
2023-03-21T09:23:56.576Z,37.30
2023-03-21T09:27:37.076Z,41.80
2023-03-21T09:30:54.811Z,53.00
2023-03-21T09:34:09.011Z,28.20
2023-03-21T09:37:22.056Z,32.70
2023-03-21T09:40:51.779Z,30.60
2023-03-21T09:44:32.052Z,22.00
2023-03-21T09:47:49.795Z,25.50
2023-03-21T09:50:55.929Z,41.80
2023-03-21T09:54:25.536Z,33.20
2023-03-21T09:57:43.252Z,31.30
2023-03-21T10:00:56.716Z,33.40
2023-03-21T10:04:14.244Z,33.50
2023-03-21T10:14:07.907Z,33.70
2023-03-21T10:17:43.165Z,32.40
2023-03-21T10:20:50.729Z,31.30
2023-03-21T10:24:05.366Z,28.00
2023-03-21T10:27:13.436Z,29.00
2023-03-21T10:30:32.416Z,30.30
2023-03-21T10:33:47.734Z,28.60
2023-03-21T10:37:04.639Z,24.50
2023-03-21T10:40:15.685Z,29.60
2023-03-21T10:43:37.553Z,28.30
2023-03-21T10:46:55.425Z,27.00
2023-03-21T10:50:08.927Z,25.20
2023-03-21T10:53:25.412Z,23.00
2023-03-21T10:56:31.856Z,24.10
2023-03-21T10:59:39.943Z,22.40
2023-03-21T11:02:46.826Z,24.90
2023-03-21T11:05:56.372Z,24.50
2023-03-21T11:09:06.114Z,25.80
2023-03-21T11:12:28.413Z,27.70
2023-03-21T11:16:05.001Z,28.10
2023-03-21T11:19:30.887Z,27.50
2023-03-21T11:22:43.596Z,26.20
2023-03-21T11:25:51.115Z,27.30
2023-03-21T11:28:55.376Z,23.20
2023-03-21T11:32:22.727Z,24.10
2023-03-21T11:35:32.551Z,22.00
2023-03-21T11:38:40.254Z,22.50
2023-03-21T11:41:47.415Z,24.40
2023-03-21T11:44:59.980Z,23.60
2023-03-21T11:48:13.005Z,19.70
2023-03-21T11:51:21.867Z,27.30
2023-03-21T11:54:30.932Z,27.20
2023-03-21T11:57:39.958Z,25.70
2023-03-21T12:00:54.884Z,25.30
2023-03-21T12:04:44.937Z,24.20
2023-03-21T12:08:33.224Z,23.80
2023-03-21T12:11:39.019Z,24.90
2023-03-21T12:14:57.646Z,24.20
2023-03-21T12:18:12.485Z,28.40
2023-03-21T12:22:09.418Z,28.60
2023-03-21T12:25:20.357Z,24.50
2023-03-21T12:28:33.515Z,25.50
2023-03-21T12:32:15.551Z,27.20
2023-03-21T12:35:46.109Z,27.60
2023-03-21T12:39:04.375Z,27.20
2023-03-21T12:42:36.771Z,29.20
2023-03-21T12:45:47.283Z,27.90
2023-03-21T12:49:00.514Z,32.60
2023-03-21T12:52:32.894Z,32.90
2023-03-21T12:55:39.591Z,40.00
2023-03-21T12:58:59.088Z,35.10
2023-03-21T13:02:31.273Z,36.90
2023-03-21T13:05:39.101Z,32.30
2023-03-21T13:09:01.922Z,25.90
2023-03-21T13:12:28.841Z,26.10
2023-03-21T13:15:54.791Z,30.80
2023-03-21T13:19:13.379Z,25.40
2023-03-21T13:22:31.445Z,25.60
2023-03-21T13:25:42.537Z,22.50
2023-03-21T13:28:52.263Z,24.20
2023-03-21T13:32:12.507Z,21.20
2023-03-21T13:35:29.255Z,23.60
2023-03-21T13:38:40.060Z,24.10
2023-03-21T13:41:51.806Z,24.00
2023-03-21T13:48:34.077Z,26.60
2023-03-21T13:51:40.103Z,28.00
2023-03-21T13:54:52.644Z,28.00
2023-03-21T13:57:58.834Z,29.80
2023-03-21T14:01:16.211Z,27.30
2023-03-21T14:04:41.984Z,28.90
2023-03-21T14:08:36.528Z,27.70
2023-03-21T14:11:46.709Z,27.60
2023-03-21T14:14:54.191Z,28.30
2023-03-21T14:18:16.312Z,34.70
2023-03-21T14:21:34.215Z,33.30
2023-03-21T14:24:41.356Z,34.10
2023-03-21T14:27:57.142Z,34.70
2023-03-21T14:31:07.274Z,36.30
2023-03-21T14:34:17.869Z,33.20
2023-03-21T14:37:31.850Z,33.10
2023-03-21T14:40:38.445Z,35.00
2023-03-21T14:43:47.436Z,33.40
2023-03-21T14:46:56.556Z,32.70
2023-03-21T14:50:13.611Z,35.00
2023-03-21T14:53:23.429Z,36.10
2023-03-21T14:56:39.678Z,39.00
2023-03-21T15:00:01.904Z,42.40
2023-03-21T15:03:18.790Z,41.30
2023-03-21T15:06:30.713Z,37.00
2023-03-21T15:12:56.269Z,36.60
2023-03-21T15:16:00.465Z,38.90
2023-03-21T15:19:17.234Z,36.40
2023-03-21T15:22:57.911Z,37.90
2023-03-21T15:26:21.206Z,43.30
2023-03-21T15:29:41.986Z,34.80
2023-03-21T15:33:05.030Z,36.60
2023-03-21T15:36:10.123Z,33.90
2023-03-21T15:39:17.464Z,38.10
2023-03-21T15:43:13.243Z,36.40
2023-03-21T15:46:49.027Z,36.00
2023-03-21T15:50:19.984Z,33.80
2023-03-21T15:53:53.317Z,31.30
2023-03-21T15:57:59.890Z,33.40
2023-03-21T16:01:33.096Z,32.10
2023-03-21T16:05:27.640Z,33.10
2023-03-21T16:09:04.751Z,38.70
2023-03-21T16:12:44.331Z,35.00
2023-03-21T16:16:10.861Z,32.80
2023-03-21T16:19:52.633Z,32.60
2023-03-21T16:23:34.837Z,35.00
2023-03-21T16:27:22.576Z,33.90
2023-03-21T16:31:05.196Z,29.10
2023-03-21T16:35:01.790Z,35.20
2023-03-21T16:38:58.910Z,38.60
2023-03-21T16:42:47.628Z,53.30
2023-03-21T16:46:47.224Z,47.70
2023-03-21T16:50:35.750Z,44.30
2023-03-21T16:54:24.984Z,30.90
2023-03-21T16:58:21.654Z,23.90
2023-03-21T17:02:01.473Z,25.60
2023-03-21T17:05:55.085Z,27.60
2023-03-21T17:09:15.618Z,34.70
2023-03-21T17:12:54.437Z,37.40
2023-03-21T17:16:33.236Z,34.20
2023-03-21T17:20:05.920Z,39.50
2023-03-21T17:23:45.825Z,33.60
2023-03-21T17:27:27.360Z,35.50
2023-03-21T17:31:30.963Z,30.10
2023-03-21T17:35:34.740Z,29.10
2023-03-21T17:39:36.504Z,29.00
2023-03-21T17:43:01.387Z,28.30
2023-03-21T17:47:03.961Z,31.50
2023-03-21T17:51:03.438Z,34.00
2023-03-21T17:54:25.124Z,40.30
2023-03-21T17:58:05.515Z,44.90
2023-03-21T18:01:52.866Z,49.10
2023-03-21T18:05:43.407Z,49.90
2023-03-21T18:09:21.731Z,57.40
2023-03-21T18:12:48.837Z,48.70
2023-03-21T18:16:37.925Z,47.70
2023-03-21T18:20:51.707Z,68.30
2023-03-21T18:24:27.324Z,77.40
2023-03-21T18:28:31.380Z,92.00
2023-03-21T18:32:11.989Z,85.00
2023-03-21T18:35:46.764Z,82.50
2023-03-21T18:39:50.669Z,81.00
2023-03-21T18:44:05.868Z,69.50
2023-03-21T18:47:55.503Z,60.00
2023-03-21T18:51:44.365Z,57.40
2023-03-21T18:55:45.951Z,53.70
2023-03-21T18:59:36.466Z,55.10
2023-03-21T19:03:35.885Z,58.70
2023-03-21T19:07:21.995Z,56.90
2023-03-21T19:10:53.041Z,74.40
2023-03-21T19:14:20.371Z,85.30
2023-03-21T19:25:18.418Z,94.40
2023-03-21T19:29:22.200Z,82.60
2023-03-21T19:33:16.981Z,124.80
2023-03-21T19:36:57.863Z,99.90
2023-03-21T19:40:31.831Z,86.50
2023-03-21T19:44:02.958Z,59.90
2023-03-21T19:48:06.643Z,72.50
2023-03-21T19:52:00.641Z,69.60
2023-03-21T19:56:16.494Z,92.00
2023-03-21T19:59:55.197Z,83.20
2023-03-21T20:03:41.885Z,64.00
2023-03-21T20:07:45.674Z,55.70
2023-03-21T20:11:27.889Z,64.90
2023-03-21T20:15:26.843Z,54.40
2023-03-21T20:19:53.066Z,56.40
2023-03-21T20:23:39.864Z,57.80
2023-03-21T20:27:08.753Z,64.10
2023-03-21T20:31:02.647Z,67.20
2023-03-21T20:35:10.291Z,68.50
2023-03-21T20:38:58.795Z,62.40
2023-03-21T20:42:32.764Z,74.00
2023-03-21T20:46:22.997Z,63.30
2023-03-21T20:50:12.980Z,64.80
2023-03-21T20:57:20.044Z,69.60
2023-03-21T21:01:16.502Z,57.60
2023-03-21T21:05:35.446Z,60.80
2023-03-21T21:09:37.902Z,63.00
2023-03-21T21:13:41.472Z,61.80
2023-03-21T21:18:02.138Z,70.80
2023-03-21T21:21:59.268Z,78.00
2023-03-21T21:25:48.602Z,75.30
2023-03-21T21:29:31.282Z,82.00
2023-03-21T21:33:27.079Z,87.40
2023-03-21T21:37:23.407Z,81.90
2023-03-21T21:41:29.736Z,83.70
2023-03-21T21:45:18.348Z,89.10
2023-03-21T21:49:13.661Z,110.10
2023-03-21T21:53:04.377Z,78.40
2023-03-21T21:57:08.137Z,68.60
2023-03-21T22:00:56.330Z,63.50
2023-03-21T22:04:49.694Z,65.50
2023-03-21T22:08:35.221Z,57.70
2023-03-21T22:12:17.965Z,64.10
2023-03-21T22:16:14.416Z,64.80
2023-03-21T22:20:06.514Z,59.70
2023-03-21T22:23:38.708Z,43.30
2023-03-21T22:27:29.002Z,77.90
2023-03-21T22:31:27.253Z,63.10
2023-03-21T22:35:23.547Z,40.30
2023-03-21T22:39:27.305Z,35.40
2023-03-21T22:43:16.879Z,32.50
2023-03-21T22:47:20.483Z,35.90
2023-03-21T22:51:24.117Z,30.50
2023-03-21T22:55:12.293Z,26.50
2023-03-21T22:59:15.858Z,33.60
2023-03-21T23:03:10.846Z,30.10
2023-03-21T23:07:02.153Z,36.90
2023-03-21T23:11:05.880Z,32.70
2023-03-21T23:15:08.351Z,32.30
2023-03-21T23:19:04.963Z,22.40
2023-03-21T23:23:11.651Z,25.50
2023-03-21T23:27:08.479Z,24.50
2023-03-21T23:31:05.060Z,23.30
2023-03-21T23:34:53.930Z,31.30
2023-03-21T23:38:41.933Z,23.70
2023-03-21T23:42:39.631Z,27.40
2023-03-21T23:46:43.230Z,32.30
2023-03-21T23:50:39.893Z,25.90
2023-03-21T23:54:43.734Z,27.00
2023-03-21T23:58:29.503Z,23.90
